createdAt,value
2019-05-29T00:05:00.966Z,6.10
2019-05-29T00:15:04.510Z,6.40
2019-05-29T00:25:08.531Z,6.60
2019-05-29T00:35:10.715Z,6.70
2019-05-29T00:45:13.440Z,6.80
2019-05-29T00:55:15.024Z,6.80
2019-05-29T01:05:16.663Z,6.80
2019-05-29T01:15:19.556Z,6.80
2019-05-29T01:25:21.160Z,6.80
2019-05-29T01:35:22.681Z,6.70
2019-05-29T01:45:24.100Z,6.60
2019-05-29T01:55:25.603Z,6.70
2019-05-29T02:05:28.176Z,6.50
2019-05-29T02:15:32.566Z,6.40
2019-05-29T02:25:33.227Z,6.20
2019-05-29T02:35:34.767Z,6.00
2019-05-29T02:45:52.926Z,6.30
2019-05-29T02:55:39.666Z,6.40
2019-05-29T03:05:41.194Z,6.30
2019-05-29T03:15:42.817Z,6.80
2019-05-29T03:25:44.256Z,6.80
2019-05-29T03:35:48.210Z,7.00
2019-05-29T03:45:49.017Z,7.00
2019-05-29T03:55:50.469Z,7.00
2019-05-29T04:05:51.901Z,7.10
2019-05-29T04:15:54.251Z,7.30
2019-05-29T04:25:56.577Z,7.60
2019-05-29T04:35:58.006Z,8.10
2019-05-29T04:45:59.422Z,8.00
2019-05-29T04:56:00.875Z,8.30
2019-05-29T05:06:02.525Z,8.40
2019-05-29T05:16:04.143Z,8.50
2019-05-29T05:26:05.705Z,8.60
2019-05-29T05:36:07.236Z,9.10
2019-05-29T05:46:08.741Z,9.30
2019-05-29T05:56:10.431Z,9.60
2019-05-29T06:06:11.884Z,9.70
2019-05-29T06:16:13.321Z,9.80
2019-05-29T06:26:14.784Z,10.10
2019-05-29T06:36:16.276Z,10.70
2019-05-29T06:46:17.810Z,11.50
2019-05-29T06:56:19.259Z,11.90
2019-05-29T07:06:20.886Z,13.10
2019-05-29T07:16:22.330Z,15.90
2019-05-29T07:26:23.872Z,15.30
2019-05-29T07:36:25.358Z,16.60
2019-05-29T07:46:26.806Z,20.00
2019-05-29T07:56:28.277Z,18.60
2019-05-29T08:06:29.713Z,17.50
2019-05-29T08:16:31.179Z,19.20
2019-05-29T08:26:32.794Z,19.40
2019-05-29T08:36:34.369Z,17.00
2019-05-29T08:46:35.811Z,21.50
2019-05-29T08:56:37.318Z,19.50
2019-05-29T09:06:38.780Z,17.80
2019-05-29T09:16:40.195Z,16.80
2019-05-29T09:26:41.733Z,15.90
2019-05-29T09:36:43.422Z,15.50
2019-05-29T09:46:44.862Z,15.70
2019-05-29T09:56:46.309Z,15.50
2019-05-29T10:06:48.116Z,15.30
2019-05-29T10:16:49.634Z,15.60
2019-05-29T10:26:51.371Z,16.60
2019-05-29T10:36:54.645Z,17.50
2019-05-29T10:46:56.750Z,15.50
2019-05-29T10:56:58.667Z,15.40
2019-05-29T11:07:00.446Z,15.40
2019-05-29T11:17:01.902Z,14.90
2019-05-29T11:27:04.053Z,14.80
2019-05-29T11:37:05.631Z,16.10
2019-05-29T11:47:07.175Z,16.70
2019-05-29T11:57:08.759Z,16.90
2019-05-29T12:07:10.221Z,16.90
2019-05-29T12:17:11.665Z,17.30
2019-05-29T12:27:13.311Z,17.10
2019-05-29T12:37:14.856Z,16.50
2019-05-29T12:47:16.321Z,16.50
2019-05-29T12:57:18.126Z,16.30
2019-05-29T13:07:19.670Z,15.80
2019-05-29T13:17:21.318Z,15.80
2019-05-29T13:27:22.749Z,16.30
2019-05-29T13:37:24.219Z,17.30
2019-05-29T13:47:25.673Z,17.80
2019-05-29T13:57:27.149Z,17.90
2019-05-29T14:07:28.718Z,17.40
2019-05-29T14:17:30.178Z,16.50
2019-05-29T14:27:31.641Z,16.80
2019-05-29T14:37:33.117Z,17.00
2019-05-29T14:47:34.553Z,17.10
2019-05-29T14:57:36.110Z,16.90
2019-05-29T15:07:37.665Z,16.50
2019-05-29T15:17:39.215Z,16.10
2019-05-29T15:27:40.745Z,16.20
2019-05-29T15:37:42.191Z,16.30
2019-05-29T15:47:43.624Z,16.40
2019-05-29T15:57:45.089Z,16.40
2019-05-29T16:07:46.541Z,16.30
2019-05-29T16:17:48.101Z,16.00
2019-05-29T16:27:49.660Z,15.80
2019-05-29T16:37:51.227Z,15.80
2019-05-29T16:47:52.667Z,15.80
2019-05-29T16:57:54.117Z,15.00
2019-05-29T17:07:55.978Z,14.50
2019-05-29T17:17:57.441Z,14.30
2019-05-29T17:27:58.886Z,14.20
2019-05-29T17:38:00.480Z,14.20
2019-05-29T17:48:02.128Z,13.70
2019-05-29T17:58:04.704Z,13.50
2019-05-29T18:08:06.402Z,13.20
2019-05-29T18:18:08.047Z,13.00
2019-05-29T18:28:09.527Z,13.40
2019-05-29T18:38:11.075Z,12.90
2019-05-29T18:48:12.635Z,12.70
2019-05-29T18:58:14.088Z,12.20
2019-05-29T19:08:15.869Z,11.80
2019-05-29T19:18:17.477Z,11.40
2019-05-29T19:28:18.910Z,11.10
2019-05-29T19:38:20.467Z,10.80
2019-05-29T19:48:23.021Z,10.60
2019-05-29T19:58:25.578Z,10.40
2019-05-29T20:08:30.917Z,10.20
2019-05-29T20:18:32.087Z,9.60
2019-05-29T20:28:34.251Z,9.20
2019-05-29T20:38:37.099Z,8.80
2019-05-29T20:48:38.845Z,8.40
2019-05-29T20:58:41.968Z,7.90
2019-05-29T21:08:43.556Z,7.40
2019-05-29T21:18:45.121Z,7.00
2019-05-29T21:28:50.442Z,6.60
2019-05-29T21:38:49.930Z,6.30
2019-05-29T21:48:51.411Z,6.10
2019-05-29T21:59:03.164Z,5.90
2019-05-29T22:08:57.247Z,5.60
2019-05-29T22:19:03.832Z,5.40
2019-05-29T22:29:17.045Z,4.90
2019-05-29T22:39:07.819Z,4.90
2019-05-29T22:49:09.843Z,4.70
2019-05-29T22:59:11.525Z,4.40
2019-05-29T23:09:14.171Z,4.30
2019-05-29T23:19:15.617Z,4.30
2019-05-29T23:29:17.183Z,4.30
2019-05-29T23:39:18.857Z,4.50
2019-05-29T23:49:20.341Z,4.80
2019-05-29T23:59:21.959Z,5.20
